Terminal Aerodrome Forecast
Issued by NWS

Home | Current Version | Previous Version | Text Only | Print | Product List | Glossary On
Versions: 1 2 3 4 5 6 7 8 9 10 11 12 13 14 15 16 17
000
FTUS43 KAPX 271231 AAA
TAFAPN
TAF AMD
KAPN 271231Z 2713/2812 VRB03KT P6SM SHRA SCT040 OVC100
     FM271600 12007KT P6SM SHRA SCT040 BKN070
     FM272100 12009KT 5SM SHRA OVC025
     FM280200 15009KT 3SM SHRA BR BKN020
     FM280300 15009KT 2SM SHRA BR BKN030
     FM280500 18008KT 3SM SHRA BR BKN035
     FM280900 23007KT 3SM SHRA BR BKN008=

USA.gov is the U.S. government's official web portal to all federal, state and local government web resources and services.